Columbia Falls, MT

11:00 AM MDT on August 28, 2016 (GMT -0600)
Tamarack Lane | | Change Station
Active Advisory: Air Quality Alert

Elev 3133 ft 48.38 °N, 114.19 °W | Updated 14 seconds ago

Overcast
Overcast
73.1 °F
Feels Like 77 °F
N
0.9
Wind Variable Wind from SW
Gusts 0.9 mph

Today
High -- | Low -- °F
--% Chance of Precip.
Yesterday
High -- | Low -- °F
Precip. -- in
Pressure 30.04 in
Visibility 8.0 miles
Clouds Overcast 1300 ft
Heat Index 77 °F
Dew Point 41 °F
Humidity 32%
Rainfall 0.00 in
Snow Depth Not available.
6:49 AM 8:25 PM
Waning Crescent, 14% visible
METAR KCTB 281656Z AUTO 34013KT 8SM OVC013 13/08 A3009 RMK AO2 SLP170 T01330083
Pressure 30.04 in
Visibility 8.0 miles
Clouds Overcast 1300 ft
Heat Index 77 °F
Dew Point 41 °F
Humidity 32%
Rainfall 0.00 in
Snow Depth Not available.
6:49 AM 8:25 PM
Waning Crescent, 14% visible
METAR KCTB 281656Z AUTO 34013KT 8SM OVC013 13/08 A3009 RMK AO2 SLP170 T01330083

10-Day Weather Forecast

Almanac

Astronomy

Aug. 28, 2016 Rise Set
Actual Time
Civil Twilight
Nautical Twilight
Astronomical Twilight
Moon
Length of Visible Light
Length of Day
Tomorrow will be .
, % of the Moon is Illuminated

Today's Extremes

State Highs State Lows

Community

WunderPhotos

Upload Photos

1,935,627 photos uploaded!

WunderBlog® & News

Nearby

Air Quality

  Air Quality AQ Index Pollutant
Not available.

Snow Depth

Station Depth Elevation

Earthquake Activity

City Distance Mag. Time & Date
Minimum magnitude displayed is 2.5.

Coastal Water Temperatures

Place Temperature

Stations

Nearby Weather Stations

Station Location Temp. Windchill Dew Point Humidity Wind Precip. Elev Updated Type
                   

Watches & Warnings

Air Quality Alert
Issued: 9:00 AM MDT Aug. 28, 2016 – National Weather Service

The air quality alert for Sanders County has been cancelled.